Time;durP1;ratioP1;P1;durP2;ratioP2;P2;SDS_P1;SDS_P2;PMS_P1;PMS_P2;Temp;Humidity;BMP_temperature;BMP_pressure;BME280_temperature;BME280_humidity;BME280_pressure;Samples;Min_cycle;Max_cycle;Signal;HPM_P1;HPM_P2
2024/04/13 00:02:06;;;;;;;;;23.00;18.00;;;;;12.50;81.77;101189.56;112154;239;40742;-57
2024/04/13 00:04:44;;;;;;;;;21.25;18.00;;;;;12.51;81.80;101182.98;112668;235;41008;-57
2024/04/13 00:07:24;;;;;;;;;20.50;16.00;;;;;12.55;81.74;101187.23;112419;235;170578;-56
2024/04/13 00:10:08;;;;;;;;;24.00;19.00;;;;;12.56;81.82;101185.11;112487;238;40818;-57
2024/04/13 00:12:51;;;;;;;;;23.50;18.50;;;;;12.59;81.72;101177.53;112067;238;170007;-57
2024/04/13 00:15:35;;;;;;;;;25.00;20.00;;;;;12.60;81.69;101173.98;112616;239;40481;-57
2024/04/13 00:18:09;;;;;;;;;18.00;16.00;;;;;12.62;81.63;101173.74;112046;239;169394;-59
2024/04/13 00:20:51;;;;;;;;;21.33;17.33;;;;;12.69;81.48;101170.08;112481;239;40474;-60
2024/04/13 00:23:30;;;;;;;;;24.00;19.00;;;;;12.66;81.66;101166.40;112747;235;39808;-57
2024/04/13 00:26:06;;;;;;;;;20.50;15.50;;;;;12.68;81.56;101164.81;112224;239;40757;-57
2024/04/13 00:28:43;;;;;;;;;19.50;17.00;;;;;12.65;81.58;101163.92;112685;235;40465;-56
2024/04/13 00:31:28;;;;;;;;;20.50;17.00;;;;;12.69;81.60;101156.91;112051;235;169768;-56
2024/04/13 00:34:13;;;;;;;;;21.25;17.25;;;;;12.70;81.66;101160.76;112594;235;40271;-56
2024/04/13 00:36:54;;;;;;;;;21.00;17.50;;;;;12.71;81.82;101154.92;112155;239;169907;-56
2024/04/13 00:39:32;;;;;;;;;22.00;17.25;;;;;12.72;81.70;101150.56;112525;235;40098;-59
2024/04/13 00:42:07;;;;;;;;;23.00;19.00;;;;;12.76;81.53;101150.66;112328;239;170285;-59
2024/04/13 00:44:42;;;;;;;;;26.50;19.00;;;;;12.81;81.55;101151.30;112401;239;41422;-55
2024/04/13 00:47:20;;;;;;;;;24.00;21.00;;;;;12.84;81.54;101151.12;112604;238;41332;-55
2024/04/13 00:49:56;;;;;;;;;25.00;21.00;;;;;12.86;81.31;101147.73;112207;235;41421;-55
2024/04/13 00:52:32;;;;;;;;;25.00;19.50;;;;;12.89;81.57;101145.86;112698;239;39785;-56
2024/04/13 00:55:10;;;;;;;;;21.00;18.00;;;;;12.88;81.30;101144.46;112151;235;169941;-58
2024/04/13 00:57:46;;;;;;;;;22.50;18.00;;;;;12.94;81.44;101145.52;112621;235;40971;-58
2024/04/13 01:00:22;;;;;;;;;19.00;16.00;;;;;12.95;81.06;101145.20;112121;235;169786;-60
2024/04/13 01:03:05;;;;;;;;;23.33;20.33;;;;;12.96;81.15;101145.05;112689;234;40698;-59
2024/04/13 01:05:45;;;;;;;;;25.00;22.00;;;;;12.97;80.90;101140.64;112431;234;169411;-59
2024/04/13 01:08:27;;;;;;;;;23.00;19.00;;;;;12.98;80.91;101139.67;112248;235;39892;-59
2024/04/13 01:11:02;;;;;;;;;25.00;19.67;;;;;12.96;80.92;101138.08;112871;238;40236;-60
2024/04/13 01:13:43;;;;;;;;;26.00;20.67;;;;;12.96;80.91;101136.11;112021;235;169380;-57
2024/04/13 01:16:30;;;;;;;;;22.00;19.00;;;;;12.92;80.83;101136.96;112740;235;40294;-60
2024/04/13 01:19:07;;;;;;;;;24.00;19.00;;;;;12.85;81.10;101133.96;112464;238;169994;-60
2024/04/13 01:21:43;;;;;;;;;25.50;19.75;;;;;12.84;81.02;101135.94;112635;238;40575;-59
2024/04/13 01:24:20;;;;;;;;;23.00;18.00;;;;;12.87;81.04;101136.62;112319;234;170221;-59
2024/04/13 01:27:00;;;;;;;;;25.67;20.33;;;;;12.88;81.00;101139.71;112346;238;40823;-59
2024/04/13 01:29:43;;;;;;;;;27.00;22.00;;;;;12.89;80.98;101137.14;112478;238;170223;-56
2024/04/13 01:32:23;;;;;;;;;27.00;22.00;;;;;12.96;81.03;101135.95;112161;235;40051;-56
2024/04/13 01:35:13;;;;;;;;;27.50;23.00;;;;;12.99;81.03;101125.98;112575;235;41183;-57
2024/04/13 01:37:47;;;;;;;;;24.75;21.00;;;;;13.03;80.83;101127.25;111970;239;169969;-57
2024/04/13 01:40:25;;;;;;;;;31.50;24.00;;;;;13.06;80.90;101121.33;112648;235;39938;-59
2024/04/13 01:43:00;;;;;;;;;27.33;22.00;;;;;13.04;80.82;101122.80;112231;238;169426;-59
2024/04/13 01:45:40;;;;;;;;;26.00;22.67;;;;;12.99;80.95;101121.61;112312;239;41077;-60
2024/04/13 01:48:21;;;;;;;;;25.00;21.00;;;;;12.98;80.82;101124.13;112449;235;169545;-57
2024/04/13 01:51:04;;;;;;;;;25.00;21.00;;;;;12.96;81.01;101125.19;112462;235;40595;-57
2024/04/13 01:53:42;;;;;;;;;25.00;21.00;;;;;12.94;80.85;101123.70;111982;237;170189;-58
2024/04/13 01:56:17;;;;;;;;;27.67;22.67;;;;;12.93;81.02;101120.56;112179;235;39710;-58
2024/04/13 01:58:58;;;;;;;;;29.00;23.00;;;;;12.95;81.05;101117.75;112641;235;40280;-58
2024/04/13 02:01:33;;;;;;;;;28.00;25.00;;;;;12.96;81.01;101115.42;111992;235;170139;-58
2024/04/13 02:04:08;;;;;;;;;28.33;23.33;;;;;12.98;81.03;101113.16;112707;235;40577;-59
2024/04/13 02:06:54;;;;;;;;;27.33;21.67;;;;;12.99;80.97;101110.92;112232;235;169991;-60
2024/04/13 02:09:34;;;;;;;;;29.00;24.00;;;;;12.98;81.14;101108.32;112532;235;40531;-56
2024/04/13 02:12:10;;;;;;;;;28.00;23.33;;;;;12.95;81.17;101108.36;112277;239;169957;-56
2024/04/13 02:14:47;;;;;;;;;34.75;27.00;;;;;12.97;81.11;101113.55;112387;235;41562;-56
2024/04/13 02:17:27;;;;;;;;;33.50;26.00;;;;;12.97;81.13;101113.21;112579;235;40862;-56
2024/04/13 02:20:14;;;;;;;;;28.67;24.00;;;;;12.96;80.99;101112.95;112197;235;40595;-59
2024/04/13 02:22:51;;;;;;;;;31.75;27.00;;;;;12.96;81.17;101113.29;112832;234;40702;-56
2024/04/13 02:25:34;;;;;;;;;32.67;25.33;;;;;12.92;81.38;101112.11;112528;235;169231;-56
2024/04/13 02:28:09;;;;;;;;;34.00;26.50;;;;;12.93;81.40;101111.34;112624;234;40706;-57
2024/04/13 02:30:44;;;;;;;;;32.67;25.00;;;;;12.92;81.38;101105.80;112233;238;169974;-57
2024/04/13 02:33:23;;;;;;;;;31.75;24.25;;;;;12.87;81.39;101100.25;112516;239;41858;-57
2024/04/13 02:36:07;;;;;;;;;36.00;27.00;;;;;12.92;81.51;101103.34;112333;238;170151;-57
2024/04/13 02:38:47;;;;;;;;;33.75;26.75;;;;;12.94;81.54;101102.46;112388;235;39599;-60
2024/04/13 02:41:24;;;;;;;;;29.33;24.00;;;;;12.96;81.52;101099.73;112765;239;41359;-60
2024/04/13 02:43:59;;;;;;;;;34.25;25.25;;;;;12.96;81.50;101099.19;112120;235;169728;-57
2024/04/13 02:46:40;;;;;;;;;30.00;24.00;;;;;12.94;81.58;101100.91;112585;235;40358;-57
2024/04/13 02:49:20;;;;;;;;;32.50;24.50;;;;;12.95;81.44;101099.27;112038;238;169451;-57
2024/04/13 02:51:56;;;;;;;;;29.33;24.00;;;;;12.98;81.51;101095.17;112496;234;42099;-57
2024/04/13 02:54:32;;;;;;;;;30.00;25.00;;;;;12.96;81.62;101087.94;112193;234;170615;-56
2024/04/13 02:57:09;;;;;;;;;30.67;24.67;;;;;12.98;81.51;101090.41;112341;235;39929;-56
2024/04/13 02:59:46;;;;;;;;;34.67;28.00;;;;;12.99;81.43;101093.17;112470;235;169659;-59
2024/04/13 03:02:26;;;;;;;;;34.00;28.00;;;;;12.98;81.50;101094.96;112261;239;40214;-59
2024/04/13 03:05:00;;;;;;;;;35.33;28.33;;;;;12.96;81.58;101095.15;112719;235;40330;-59
2024/04/13 03:07:41;;;;;;;;;31.67;25.00;;;;;12.97;81.48;101101.45;112020;235;169333;-59
2024/04/13 03:10:18;;;;;;;;;32.50;27.00;;;;;12.95;81.78;101102.72;112690;238;40414;-59
2024/04/13 03:13:00;;;;;;;;;30.00;23.00;;;;;12.97;81.69;101101.23;112304;239;168966;-58
2024/04/13 03:15:38;;;;;;;;;35.00;27.00;;;;;12.97;81.99;101095.58;112551;238;40042;-57
2024/04/13 03:18:15;;;;;;;;;32.33;25.00;;;;;12.93;81.98;101096.63;112462;239;170315;-59
2024/04/13 03:20:56;;;;;;;;;33.00;26.50;;;;;12.93;81.98;101099.16;112451;235;39977;-60
2024/04/13 03:23:41;;;;;;;;;35.67;28.00;;;;;12.96;82.35;101099.95;112830;238;40434;-59
2024/04/13 03:26:19;;;;;;;;;35.67;28.00;;;;;12.99;82.26;101098.94;112301;238;40428;-58
2024/04/13 03:28:55;;;;;;;;;35.75;27.00;;;;;13.01;82.25;101100.77;112286;239;40297;-58
2024/04/13 03:31:33;;;;;;;;;32.75;26.25;;;;;12.99;82.29;101097.70;112494;238;169937;-58
2024/04/13 03:34:11;;;;;;;;;35.25;28.00;;;;;13.02;82.51;101094.60;112166;234;43590;-57
2024/04/13 03:36:47;;;;;;;;;32.50;25.25;;;;;13.03;82.48;101091.95;112130;235;170294;-57
2024/04/13 03:39:32;;;;;;;;;34.50;28.00;;;;;13.06;82.60;101087.32;112437;235;40353;-57
2024/04/13 03:42:08;;;;;;;;;34.50;27.00;;;;;13.04;82.37;101087.17;112326;239;170351;-57
2024/04/13 03:44:43;;;;;;;;;35.50;28.00;;;;;13.02;82.35;101085.55;112333;235;40101;-60
2024/04/13 03:47:20;;;;;;;;;32.67;26.00;;;;;13.02;82.51;101088.48;112735;235;41558;-60
2024/04/13 03:49:57;;;;;;;;;38.00;29.50;;;;;13.05;82.59;101084.02;112019;237;170144;-56
2024/04/13 03:52:37;;;;;;;;;34.75;29.00;;;;;13.09;82.62;101082.28;112683;235;40010;-56
2024/04/13 03:55:21;;;;;;;;;40.00;30.50;;;;;13.11;82.52;101086.86;112149;235;170273;-56
2024/04/13 03:57:59;;;;;;;;;37.75;29.00;;;;;13.08;82.58;101081.50;112674;239;40633;-58
2024/04/13 04:00:45;;;;;;;;;34.00;27.25;;;;;13.11;82.72;101082.32;112318;235;170362;-57
2024/04/13 04:03:26;;;;;;;;;38.75;30.00;;;;;13.18;82.65;101083.32;112531;239;40229;-59
2024/04/13 04:06:06;;;;;;;;;34.33;27.33;;;;;13.18;82.73;101083.44;112407;239;170421;-58
2024/04/13 04:08:43;;;;;;;;;41.00;31.00;;;;;13.23;82.70;101084.33;112265;237;40067;-59
2024/04/13 04:11:24;;;;;;;;;34.00;27.00;;;;;13.26;82.82;101085.67;112310;239;40554;-60
2024/04/13 04:13:59;;;;;;;;;37.33;29.00;;;;;13.23;82.75;101087.90;112090;235;169899;-59
2024/04/13 04:16:45;;;;;;;;;35.67;29.00;;;;;13.26;82.66;101091.39;112632;235;39954;-59
2024/04/13 04:19:22;;;;;;;;;37.50;30.00;;;;;13.28;82.84;101091.97;112104;238;169068;-58
2024/04/13 04:21:58;;;;;;;;;39.00;30.33;;;;;13.31;82.97;101091.72;112568;235;42054;-58
2024/04/13 04:24:34;;;;;;;;;37.00;28.25;;;;;13.40;82.99;101084.47;112531;235;170267;-59
2024/04/13 04:27:09;;;;;;;;;34.33;28.33;;;;;13.53;82.81;101081.78;112533;238;40634;-59
2024/04/13 04:29:46;;;;;;;;;36.67;28.33;;;;;13.60;82.79;101082.11;112394;234;170934;-59
2024/04/13 04:32:24;;;;;;;;;33.75;26.75;;;;;13.69;82.74;101084.09;112240;235;40564;-59
2024/04/13 04:35:01;;;;;;;;;38.00;29.75;;;;;13.72;82.81;101086.08;112700;235;40404;-57
2024/04/13 04:37:43;;;;;;;;;37.67;29.67;;;;;13.70;82.69;101085.52;111964;235;170455;-56
2024/04/13 04:40:20;;;;;;;;;37.25;29.00;;;;;13.69;82.65;101087.52;112623;239;40727;-56
2024/04/13 04:43:01;;;;;;;;;37.25;28.50;;;;;13.75;82.71;101084.57;112172;238;170441;-58
2024/04/13 04:45:43;;;;;;;;;36.00;29.00;;;;;13.93;82.84;101084.11;112706;235;40298;-60
2024/04/13 04:48:20;;;;;;;;;37.25;30.00;;;;;14.22;82.88;101084.86;112442;235;170472;-57
2024/04/13 04:51:02;;;;;;;;;38.00;30.33;;;;;14.73;82.28;101086.09;112362;239;40932;-57
2024/04/13 04:53:40;;;;;;;;;38.00;30.33;;;;;15.28;82.06;101088.19;112748;235;40455;-60
2024/04/13 04:56:25;;;;;;;;;33.67;28.00;;;;;15.93;81.39;101085.72;112301;238;40528;-60
2024/04/13 04:59:05;;;;;;;;;35.00;28.00;;;;;16.35;80.41;101088.23;112698;238;40737;-60
2024/04/13 05:01:42;;;;;;;;;37.00;29.25;;;;;16.52;79.59;101083.91;112149;235;169879;-60
2024/04/13 05:04:18;;;;;;;;;35.50;29.00;;;;;16.59;78.73;101084.09;112806;235;40586;-59
2024/04/13 05:06:58;;;;;;;;;35.50;28.00;;;;;16.50;78.30;101084.63;112203;235;169791;-59
2024/04/13 05:09:34;;;;;;;;;35.00;28.75;;;;;16.29;78.41;101084.80;112558;235;41052;-56
2024/04/13 05:12:10;;;;;;;;;37.25;29.75;;;;;16.24;77.82;101081.52;111567;235;668793;-56
2024/04/13 05:14:51;;;;;;;;;30.33;26.33;;;;;16.13;77.98;101091.79;112630;238;41100;-60
2024/04/13 05:17:36;;;;;;;;;34.00;27.67;;;;;16.00;77.84;101094.84;112758;238;40328;-60
2024/04/13 05:20:13;;;;;;;;;35.25;27.25;;;;;15.99;77.71;101097.89;112126;235;40322;-56
2024/04/13 05:22:49;;;;;;;;;34.33;28.00;;;;;15.88;77.88;101096.16;112646;235;41192;-58
2024/04/13 05:25:28;;;;;;;;;38.67;31.00;;;;;15.77;77.91;101095.67;112047;235;170590;-55
2024/04/13 05:28:06;;;;;;;;;32.25;26.50;;;;;15.71;77.98;101098.39;112637;235;39973;-59
2024/04/13 05:30:56;;;;;;;;;34.33;27.67;;;;;15.78;77.98;101092.86;112300;235;171114;-60
2024/04/13 05:33:35;;;;;;;;;33.00;27.00;;;;;15.89;77.88;101092.42;112615;239;40289;-60
2024/04/13 05:36:10;;;;;;;;;38.00;29.00;;;;;16.02;77.83;101092.52;112568;235;170868;-60
2024/04/13 05:38:47;;;;;;;;;34.33;28.00;;;;;16.16;77.88;101088.56;112325;235;41168;-58
2024/04/13 05:41:23;;;;;;;;;34.50;28.00;;;;;16.36;77.59;101087.44;112631;239;41361;-58
2024/04/13 05:44:00;;;;;;;;;36.00;27.00;;;;;16.62;77.29;101087.35;112062;239;169770;-56
2024/04/13 05:46:36;;;;;;;;;32.00;25.33;;;;;16.90;77.13;101087.63;112706;239;40257;-56
2024/04/13 05:49:17;;;;;;;;;29.00;25.00;;;;;16.95;76.78;101087.84;112201;235;169765;-58
2024/04/13 05:51:51;;;;;;;;;30.25;25.00;;;;;16.93;76.70;101085.23;112573;235;40866;-59
2024/04/13 05:54:38;;;;;;;;;29.00;24.33;;;;;16.85;76.78;101083.78;112448;235;170143;-60
2024/04/13 05:57:14;;;;;;;;;31.67;25.67;;;;;16.81;76.41;101083.21;112501;235;41104;-60
2024/04/13 05:59:58;;;;;;;;;29.00;23.33;;;;;16.76;76.26;101075.66;112441;235;170019;-57
2024/04/13 06:02:33;;;;;;;;;30.00;26.00;;;;;16.67;76.14;101068.47;112171;239;39780;-56
2024/04/13 06:05:08;;;;;;;;;28.33;24.00;;;;;16.69;75.84;101067.20;112728;238;40773;-59
2024/04/13 06:07:45;;;;;;;;;32.00;25.00;;;;;16.66;75.87;101067.12;112001;239;169845;-59
2024/04/13 06:10:22;;;;;;;;;28.00;23.00;;;;;16.60;75.85;101065.70;112730;235;40696;-60
2024/04/13 06:13:01;;;;;;;;;34.25;26.00;;;;;16.52;76.15;101061.20;112291;238;170565;-56
2024/04/13 06:15:42;;;;;;;;;30.67;25.00;;;;;16.53;76.06;101063.39;112453;235;40087;-56
2024/04/13 06:18:26;;;;;;;;;26.33;22.67;;;;;16.51;76.27;101060.23;112299;235;170657;-59
2024/04/13 06:21:08;;;;;;;;;31.00;26.00;;;;;16.41;76.09;101058.02;112419;235;39921;-60
2024/04/13 06:23:52;;;;;;;;;31.50;25.50;;;;;16.30;76.25;101058.60;112592;235;170095;-59
2024/04/13 06:26:28;;;;;;;;;30.67;26.00;;;;;16.23;76.32;101060.71;112333;239;40126;-60
2024/04/13 06:29:10;;;;;;;;;32.67;25.67;;;;;16.21;76.48;101061.05;112332;239;40521;-55
2024/04/13 06:31:49;;;;;;;;;31.00;25.67;;;;;16.10;76.77;101060.50;112048;235;169764;-55
2024/04/13 06:34:25;;;;;;;;;31.50;25.25;;;;;16.11;76.81;101055.59;112665;235;41051;-58
2024/04/13 06:37:05;;;;;;;;;28.00;23.00;;;;;16.19;76.97;101054.55;112254;235;169968;-56
2024/04/13 06:39:43;;;;;;;;;28.00;24.00;;;;;16.30;77.02;101053.55;112540;235;40669;-55
2024/04/13 06:42:19;;;;;;;;;30.00;25.00;;;;;16.43;77.13;101055.88;112382;238;170747;-55
2024/04/13 06:44:58;;;;;;;;;27.33;22.33;;;;;16.58;77.17;101058.95;112152;238;42434;-55
2024/04/13 06:47:36;;;;;;;;;31.00;25.00;;;;;16.75;77.12;101057.11;112606;235;40815;-56
2024/04/13 06:50:11;;;;;;;;;25.50;21.50;;;;;16.89;76.99;101052.72;112148;236;41368;-57
2024/04/13 06:52:48;;;;;;;;;28.00;25.00;;;;;17.04;76.84;101053.38;112633;239;41672;-57
2024/04/13 06:55:31;;;;;;;;;29.33;23.67;;;;;17.19;76.77;101050.45;112039;235;169902;-57
2024/04/13 06:58:08;;;;;;;;;28.50;23.00;;;;;17.30;76.58;101050.54;112628;235;40301;-59
2024/04/13 07:00:54;;;;;;;;;26.50;22.50;;;;;17.44;76.19;101054.38;112261;235;169778;-59
2024/04/13 07:03:32;;;;;;;;;30.33;24.33;;;;;17.57;75.95;101055.42;112454;235;41076;-60
2024/04/13 07:06:19;;;;;;;;;29.00;23.00;;;;;17.69;75.73;101056.95;112017;235;170070;-58
2024/04/13 07:08:55;;;;;;;;;29.00;23.00;;;;;17.83;75.41;101058.41;112336;235;40016;-59
2024/04/13 07:11:35;;;;;;;;;26.00;22.25;;;;;17.95;74.93;101054.05;112659;239;40265;-58
2024/04/13 07:14:11;;;;;;;;;28.00;24.00;;;;;18.06;74.26;101052.45;112041;239;169223;-57
2024/04/13 07:16:51;;;;;;;;;25.33;21.00;;;;;18.10;73.97;101051.87;112230;236;40762;-59
2024/04/13 07:19:25;;;;;;;;;25.67;21.67;;;;;18.11;73.77;101050.65;112145;235;169528;-57
2024/04/13 07:22:04;;;;;;;;;26.00;21.50;;;;;18.14;73.86;101048.47;112210;235;39653;-58
2024/04/13 07:24:46;;;;;;;;;27.75;22.25;;;;;18.36;73.20;101045.92;112360;235;169786;-59
2024/04/13 07:27:24;;;;;;;;;23.50;18.50;;;;;18.65;73.07;101048.48;112491;235;40306;-55
2024/04/13 07:30:07;;;;;;;;;21.00;19.00;;;;;19.14;71.67;101047.85;112504;235;175770;-55
2024/04/13 07:32:42;;;;;;;;;26.00;21.50;;;;;19.18;71.03;101039.33;112259;235;40288;-56
2024/04/13 07:35:22;;;;;;;;;22.33;18.33;;;;;19.06;70.42;101039.60;112162;236;41301;-58
2024/04/13 07:38:02;;;;;;;;;25.00;19.33;;;;;18.91;70.23;101038.23;112013;235;170469;-58
2024/04/13 07:40:38;;;;;;;;;20.00;17.00;;;;;19.00;70.29;101038.45;112165;236;40249;-58
2024/04/13 07:43:14;;;;;;;;;23.00;20.00;;;;;19.47;70.28;101035.30;111894;236;169524;-59
2024/04/13 07:45:51;;;;;;;;;20.67;18.33;;;;;19.86;69.94;101036.23;112148;236;40730;-59
2024/04/13 07:48:27;;;;;;;;;25.33;21.67;;;;;20.81;69.82;101032.18;112363;235;170189;-59
2024/04/13 07:51:04;;;;;;;;;22.00;19.00;;;;;22.54;68.89;101023.61;112353;235;39994;-63
2024/04/13 07:53:38;;;;;;;;;19.00;17.00;;;;;24.19;66.94;101020.89;112239;239;40759;-63
2024/04/13 07:56:19;;;;;;;;;20.00;18.00;;;;;25.14;64.56;101021.81;112217;236;40712;-64
2024/04/13 07:59:07;;;;;;;;;18.00;15.25;;;;;26.37;62.79;101016.29;112662;235;39965;-65
2024/04/13 08:01:47;;;;;;;;;18.00;16.00;;;;;27.49;59.77;101009.82;112098;235;170064;-66
2024/04/13 08:04:27;;;;;;;;;17.00;14.67;;;;;27.70;57.67;101011.58;112716;239;39718;-67
2024/04/13 08:07:04;;;;;;;;;17.00;15.00;;;;;27.84;54.35;101014.20;112301;235;170209;-67
2024/04/13 08:09:46;;;;;;;;;15.00;14.00;;;;;27.78;53.88;101010.80;112522;235;40006;-65
2024/04/13 08:12:28;;;;;;;;;16.00;14.00;;;;;28.38;52.82;101007.95;112439;239;169900;-63
2024/04/13 08:15:13;;;;;;;;;17.00;16.00;;;;;28.64;51.36;101005.80;112353;239;42222;-64
2024/04/13 08:17:49;;;;;;;;;18.00;16.00;;;;;28.26;50.34;101004.56;112638;235;40327;-66
2024/04/13 08:20:25;;;;;;;;;17.00;15.67;;;;;27.79;49.53;101004.58;112127;235;41399;-63
2024/04/13 08:23:02;;;;;;;;;16.00;15.00;;;;;27.87;48.63;101003.58;112392;234;41948;-63
2024/04/13 08:25:43;;;;;;;;;17.00;14.00;;;;;27.87;47.98;101004.40;112002;237;169999;-64
2024/04/13 08:28:19;;;;;;;;;14.75;12.50;;;;;28.19;47.18;101003.90;112660;235;40540;-65
2024/04/13 08:31:05;;;;;;;;;16.33;14.33;;;;;28.57;47.00;101000.71;112114;236;169699;-67
2024/04/13 08:33:45;;;;;;;;;16.00;14.00;;;;;28.48;45.51;101000.58;112575;234;41478;-67
2024/04/13 08:36:25;;;;;;;;;15.33;14.00;;;;;28.38;45.43;101002.04;112271;234;170110;-67
2024/04/13 08:39:12;;;;;;;;;16.00;14.00;;;;;28.01;45.09;101005.09;112326;239;40355;-64
2024/04/13 08:42:03;;;;;;;;;16.50;14.00;;;;;28.24;44.76;101012.80;112628;235;40549;-64
2024/04/13 08:44:43;;;;;;;;;16.00;13.25;;;;;27.94;44.07;101008.74;112283;239;40067;-65
2024/04/13 08:47:23;;;;;;;;;15.67;14.00;;;;;27.50;44.29;101014.23;112662;239;41887;-56
2024/04/13 08:50:01;;;;;;;;;17.00;15.67;;;;;26.71;43.88;101013.20;112264;235;169587;-56
2024/04/13 08:52:41;;;;;;;;;15.00;13.25;;;;;26.44;44.72;101014.96;112086;235;39936;-56
2024/04/13 08:55:18;;;;;;;;;12.75;12.00;;;;;27.13;44.71;101000.98;111952;239;169795;-55
2024/04/13 08:57:55;;;;;;;;;18.00;16.00;;;;;27.81;44.32;100996.85;112132;236;40090;-60
2024/04/13 09:00:39;;;;;;;;;14.33;13.00;;;;;28.36;43.48;101002.52;112054;236;170230;-60
2024/04/13 09:03:22;;;;;;;;;15.67;14.33;;;;;28.87;42.41;100997.38;112232;239;40678;-59
2024/04/13 09:06:10;;;;;;;;;12.00;11.00;;;;;28.91;41.82;101000.07;111906;235;170216;-59
2024/04/13 09:08:47;;;;;;;;;14.50;13.75;;;;;29.47;41.47;101003.65;112082;237;41723;-57
2024/04/13 09:11:30;;;;;;;;;14.75;13.00;;;;;29.74;41.16;101002.91;112036;236;40170;-63
2024/04/13 09:14:12;;;;;;;;;15.50;13.00;;;;;29.91;40.96;101001.70;111944;240;169698;-60
2024/04/13 09:16:54;;;;;;;;;17.00;15.00;;;;;30.46;39.61;100994.34;112139;240;40154;-59
2024/04/13 09:19:34;;;;;;;;;12.00;12.00;;;;;30.25;38.96;100998.25;111958;240;169701;-57
2024/04/13 09:22:11;;;;;;;;;12.75;12.00;;;;;29.99;38.79;100997.15;112031;236;39979;-58
2024/04/13 09:24:53;;;;;;;;;14.00;12.00;;;;;29.43;38.03;100998.16;111900;236;170319;-56
2024/04/13 09:27:28;;;;;;;;;15.00;14.00;;;;;28.45;38.85;100996.09;112056;236;40419;-55
2024/04/13 09:30:13;;;;;;;;;14.33;13.33;;;;;28.30;38.94;100996.46;111943;236;170111;-60
2024/04/13 09:32:50;;;;;;;;;18.00;16.33;;;;;27.51;39.49;101003.04;112180;237;40648;-58
2024/04/13 09:35:29;;;;;;;;;15.00;13.75;;;;;26.78;40.10;101005.37;112063;236;40608;-57
2024/04/13 09:38:04;;;;;;;;;16.00;14.00;;;;;26.10;40.79;101007.67;111928;237;169770;-56
2024/04/13 09:40:41;;;;;;;;;14.75;13.50;;;;;25.48;41.29;101013.70;112062;236;40104;-56
2024/04/13 09:43:25;;;;;;;;;17.00;15.00;;;;;25.53;42.07;101008.91;111968;236;169908;-55
2024/04/13 09:46:06;;;;;;;;;15.25;14.25;;;;;25.55;42.11;101003.94;112113;240;42105;-55
2024/04/13 09:48:45;;;;;;;;;15.00;13.00;;;;;25.38;42.09;101011.13;111920;240;170237;-59
2024/04/13 09:51:23;;;;;;;;;16.75;15.00;;;;;25.20;42.92;101010.94;112044;238;41773;-59
2024/04/13 09:54:11;;;;;;;;;13.00;12.00;;;;;25.29;43.12;101007.83;112094;236;41530;-56
2024/04/13 09:56:52;;;;;;;;;17.00;15.00;;;;;25.33;43.03;101003.02;112039;237;42223;-56
2024/04/13 09:59:31;;;;;;;;;14.75;13.75;;;;;25.10;42.53;100993.64;112141;236;40314;-57
2024/04/13 10:02:09;;;;;;;;;15.00;14.00;;;;;24.93;43.01;100997.12;111903;237;169929;-57
2024/04/13 10:04:45;;;;;;;;;14.00;12.00;;;;;24.90;43.12;100995.83;112094;236;40580;-59
2024/04/13 10:07:21;;;;;;;;;18.00;16.00;;;;;25.07;43.46;100993.09;111953;240;169564;-59
2024/04/13 10:10:07;;;;;;;;;12.00;12.00;;;;;24.81;43.58;100994.01;112095;236;41992;-58
2024/04/13 10:12:44;;;;;;;;;16.00;14.00;;;;;24.84;44.21;100989.48;111874;240;170429;-58
2024/04/13 10:15:22;;;;;;;;;17.00;15.00;;;;;25.01;43.93;100986.14;112035;236;40791;-57
2024/04/13 10:18:02;;;;;;;;;15.50;14.00;;;;;25.01;44.14;100992.50;112090;236;40515;-59
2024/04/13 10:20:36;;;;;;;;;16.00;15.00;;;;;25.06;43.73;100982.30;112071;236;43876;-59
2024/04/13 10:23:12;;;;;;;;;15.00;14.00;;;;;24.98;44.10;100980.55;112163;236;41836;-58
2024/04/13 10:26:00;;;;;;;;;15.50;13.50;;;;;25.13;44.06;100973.02;111897;236;170077;-58
2024/04/13 10:28:34;;;;;;;;;15.50;13.50;;;;;25.34;43.96;100964.75;112140;235;40119;-56
2024/04/13 10:31:19;;;;;;;;;15.00;14.00;;;;;25.37;43.25;100965.40;111971;239;169913;-57
2024/04/13 10:33:59;;;;;;;;;14.00;13.00;;;;;25.26;43.27;100963.48;112111;237;41410;-56
2024/04/13 10:36:36;;;;;;;;;15.00;13.00;;;;;25.35;43.31;100962.31;111914;236;170278;-56
2024/04/13 10:39:24;;;;;;;;;17.00;15.00;;;;;25.45;43.19;100953.77;112098;237;40126;-57
2024/04/13 10:42:10;;;;;;;;;15.00;12.00;;;;;25.20;42.77;100964.31;112072;236;39853;-57
2024/04/13 10:44:48;;;;;;;;;14.00;13.33;;;;;25.09;43.10;100964.16;112030;238;40587;-58
2024/04/13 10:47:27;;;;;;;;;14.67;13.00;;;;;25.03;42.66;100968.13;112073;236;40527;-58
2024/04/13 10:50:06;;;;;;;;;12.33;12.00;;;;;25.12;42.90;100975.02;111931;236;169791;-59
2024/04/13 10:52:44;;;;;;;;;14.00;13.00;;;;;25.16;42.83;100973.59;112122;239;41627;-58
2024/04/13 10:55:29;;;;;;;;;15.00;12.67;;;;;25.12;42.63;100975.41;111935;237;169905;-59
2024/04/13 10:58:12;;;;;;;;;15.00;13.00;;;;;25.27;42.74;100978.55;112066;236;40914;-58
2024/04/13 11:00:50;;;;;;;;;11.50;10.75;;;;;25.29;42.37;100979.49;111946;236;170133;-59
2024/04/13 11:03:29;;;;;;;;;16.00;15.00;;;;;25.39;42.66;100978.97;112089;236;40426;-57
2024/04/13 11:06:08;;;;;;;;;15.00;13.75;;;;;25.24;42.69;100979.98;112036;238;43174;-56
2024/04/13 11:08:45;;;;;;;;;14.00;13.00;;;;;25.11;42.57;100978.17;112091;240;40901;-58
2024/04/13 11:11:26;;;;;;;;;15.00;13.00;;;;;24.89;42.68;100966.48;112081;236;40131;-57
2024/04/13 11:14:08;;;;;;;;;17.00;15.00;;;;;24.73;42.96;100962.05;111942;240;169984;-57
2024/04/13 11:16:46;;;;;;;;;13.25;12.00;;;;;24.61;43.00;100967.13;112127;236;40820;-58
2024/04/13 11:19:26;;;;;;;;;15.00;14.00;;;;;24.74;43.37;100967.36;111963;237;169788;-59
2024/04/13 11:22:09;;;;;;;;;13.00;12.00;;;;;25.03;43.33;100972.33;112154;236;41250;-60
2024/04/13 11:24:47;;;;;;;;;15.00;13.00;;;;;25.10;42.73;100965.83;111951;236;170218;-58
2024/04/13 11:27:22;;;;;;;;;13.50;12.00;;;;;24.77;42.83;100966.27;112027;240;40970;-56
2024/04/13 11:29:59;;;;;;;;;15.00;13.00;;;;;24.73;43.25;100966.74;112053;236;39914;-57
2024/04/13 11:32:37;;;;;;;;;15.00;14.00;;;;;24.70;42.78;100958.73;112042;238;39853;-57
2024/04/13 11:35:18;;;;;;;;;16.00;14.00;;;;;24.50;42.77;100953.24;112077;240;41394;-54
2024/04/13 11:38:06;;;;;;;;;14.00;13.00;;;;;24.23;42.91;100953.96;111923;236;170647;-59
2024/04/13 11:40:43;;;;;;;;;14.00;13.00;;;;;24.17;43.42;100954.36;112074;236;41181;-58
2024/04/13 11:43:18;;;;;;;;;18.00;16.00;;;;;24.21;43.59;100955.23;111965;236;170075;-57
2024/04/13 11:45:52;;;;;;;;;12.33;11.00;;;;;24.25;43.62;100949.02;112052;240;41544;-57
2024/04/13 11:48:29;;;;;;;;;13.00;12.25;;;;;24.36;44.04;100952.71;111904;238;171201;-55
2024/04/13 11:51:04;;;;;;;;;18.00;15.00;;;;;24.55;44.00;100953.23;112057;240;40575;-55
2024/04/13 11:53:39;;;;;;;;;14.00;13.00;;;;;24.83;43.56;100951.88;112049;236;39955;-59
2024/04/13 11:56:14;;;;;;;;;12.00;11.00;;;;;24.94;42.54;100953.77;111879;240;169928;-59
2024/04/13 11:58:53;;;;;;;;;13.00;12.00;;;;;24.96;42.65;100950.30;112135;240;40575;-58
2024/04/13 12:01:32;;;;;;;;;15.00;13.00;;;;;25.00;42.55;100947.77;111897;237;169940;-58